sensor_id;sensor_type;location;lat;lon;timestamp;P1;durP1;ratioP1;P2;durP2;ratioP2
6406;SDS011;3236;51.022;6.818;2023-02-01T00:02:09;24.05;;;9.43;;
6406;SDS011;3236;51.022;6.818;2023-02-01T00:04:37;23.10;;;8.27;;
6406;SDS011;3236;51.022;6.818;2023-02-01T00:07:04;28.45;;;9.13;;
6406;SDS011;3236;51.022;6.818;2023-02-01T00:09:33;24.60;;;7.97;;
6406;SDS011;3236;51.022;6.818;2023-02-01T00:12:00;30.25;;;8.80;;
6406;SDS011;3236;51.022;6.818;2023-02-01T00:14:28;18.85;;;7.22;;
6406;SDS011;3236;51.022;6.818;2023-02-01T00:16:57;22.35;;;7.72;;
6406;SDS011;3236;51.022;6.818;2023-02-01T00:19:24;20.60;;;7.82;;
6406;SDS011;3236;51.022;6.818;2023-02-01T00:21:51;27.92;;;9.30;;
6406;SDS011;3236;51.022;6.818;2023-02-01T00:24:18;19.73;;;6.63;;
6406;SDS011;3236;51.022;6.818;2023-02-01T00:26:48;19.70;;;6.47;;
6406;SDS011;3236;51.022;6.818;2023-02-01T00:29:16;9.00;;;4.85;;
6406;SDS011;3236;51.022;6.818;2023-02-01T00:31:44;20.77;;;7.00;;
6406;SDS011;3236;51.022;6.818;2023-02-01T00:34:12;17.60;;;6.50;;
6406;SDS011;3236;51.022;6.818;2023-02-01T00:36:43;25.90;;;6.90;;
6406;SDS011;3236;51.022;6.818;2023-02-01T00:39:11;25.33;;;6.80;;
6406;SDS011;3236;51.022;6.818;2023-02-01T00:41:39;17.33;;;6.20;;
6406;SDS011;3236;51.022;6.818;2023-02-01T00:44:08;19.60;;;4.97;;
6406;SDS011;3236;51.022;6.818;2023-02-01T00:46:35;17.73;;;5.90;;
6406;SDS011;3236;51.022;6.818;2023-02-01T00:49:02;18.58;;;5.15;;
6406;SDS011;3236;51.022;6.818;2023-02-01T00:51:30;25.75;;;5.28;;
6406;SDS011;3236;51.022;6.818;2023-02-01T00:54:00;12.90;;;5.07;;
6406;SDS011;3236;51.022;6.818;2023-02-01T00:56:28;25.45;;;5.95;;
6406;SDS011;3236;51.022;6.818;2023-02-01T00:58:55;24.08;;;4.28;;
6406;SDS011;3236;51.022;6.818;2023-02-01T01:01:25;23.17;;;4.72;;
6406;SDS011;3236;51.022;6.818;2023-02-01T01:03:54;15.63;;;3.92;;
6406;SDS011;3236;51.022;6.818;2023-02-01T01:06:23;18.50;;;3.53;;
6406;SDS011;3236;51.022;6.818;2023-02-01T01:08:51;13.27;;;2.72;;
6406;SDS011;3236;51.022;6.818;2023-02-01T01:11:19;11.45;;;2.60;;
6406;SDS011;3236;51.022;6.818;2023-02-01T01:13:55;16.52;;;4.82;;
6406;SDS011;3236;51.022;6.818;2023-02-01T01:16:25;15.20;;;3.63;;
6406;SDS011;3236;51.022;6.818;2023-02-01T01:18:54;16.40;;;4.10;;
6406;SDS011;3236;51.022;6.818;2023-02-01T01:21:21;11.95;;;3.78;;
6406;SDS011;3236;51.022;6.818;2023-02-01T01:23:48;12.23;;;3.05;;
6406;SDS011;3236;51.022;6.818;2023-02-01T01:26:17;16.70;;;3.58;;
6406;SDS011;3236;51.022;6.818;2023-02-01T01:28:45;16.10;;;2.70;;
6406;SDS011;3236;51.022;6.818;2023-02-01T01:31:13;14.57;;;3.70;;
6406;SDS011;3236;51.022;6.818;2023-02-01T01:33:43;14.43;;;3.60;;
6406;SDS011;3236;51.022;6.818;2023-02-01T01:36:10;12.27;;;3.08;;
6406;SDS011;3236;51.022;6.818;2023-02-01T01:38:38;18.48;;;3.10;;
6406;SDS011;3236;51.022;6.818;2023-02-01T01:41:06;12.88;;;3.20;;
6406;SDS011;3236;51.022;6.818;2023-02-01T01:43:46;9.32;;;3.38;;
6406;SDS011;3236;51.022;6.818;2023-02-01T01:46:17;11.85;;;2.95;;
6406;SDS011;3236;51.022;6.818;2023-02-01T01:48:51;14.38;;;3.05;;
6406;SDS011;3236;51.022;6.818;2023-02-01T01:51:27;16.55;;;3.65;;
6406;SDS011;3236;51.022;6.818;2023-02-01T01:53:59;13.32;;;3.70;;
6406;SDS011;3236;51.022;6.818;2023-02-01T01:56:31;17.40;;;3.90;;
6406;SDS011;3236;51.022;6.818;2023-02-01T01:59:03;16.48;;;3.75;;
6406;SDS011;3236;51.022;6.818;2023-02-01T02:01:31;11.23;;;3.40;;
6406;SDS011;3236;51.022;6.818;2023-02-01T02:04:03;13.73;;;3.50;;
6406;SDS011;3236;51.022;6.818;2023-02-01T02:06:37;15.07;;;4.15;;
6406;SDS011;3236;51.022;6.818;2023-02-01T02:09:10;19.67;;;3.88;;
6406;SDS011;3236;51.022;6.818;2023-02-01T02:11:37;13.52;;;3.35;;
6406;SDS011;3236;51.022;6.818;2023-02-01T02:14:05;14.75;;;3.75;;
6406;SDS011;3236;51.022;6.818;2023-02-01T02:23:02;21.70;;;4.05;;
6406;SDS011;3236;51.022;6.818;2023-02-01T02:26:07;10.15;;;3.42;;
6406;SDS011;3236;51.022;6.818;2023-02-01T02:29:07;18.02;;;4.47;;
6406;SDS011;3236;51.022;6.818;2023-02-01T02:32:26;18.73;;;3.90;;
6406;SDS011;3236;51.022;6.818;2023-02-01T02:35:11;14.63;;;3.65;;
6406;SDS011;3236;51.022;6.818;2023-02-01T02:37:50;9.60;;;4.13;;
6406;SDS011;3236;51.022;6.818;2023-02-01T02:40:22;16.17;;;4.50;;
6406;SDS011;3236;51.022;6.818;2023-02-01T02:42:59;20.25;;;4.43;;
6406;SDS011;3236;51.022;6.818;2023-02-01T02:45:50;16.27;;;4.80;;
6406;SDS011;3236;51.022;6.818;2023-02-01T02:48:44;23.77;;;5.75;;
6406;SDS011;3236;51.022;6.818;2023-02-01T02:51:20;10.05;;;4.15;;
6406;SDS011;3236;51.022;6.818;2023-02-01T02:54:10;24.20;;;6.60;;
6406;SDS011;3236;51.022;6.818;2023-02-01T02:56:53;15.63;;;5.22;;
6406;SDS011;3236;51.022;6.818;2023-02-01T02:59:40;15.13;;;5.03;;
6406;SDS011;3236;51.022;6.818;2023-02-01T03:02:27;15.27;;;4.75;;
6406;SDS011;3236;51.022;6.818;2023-02-01T03:05:11;15.10;;;4.03;;
6406;SDS011;3236;51.022;6.818;2023-02-01T03:10:31;22.00;;;5.53;;
6406;SDS011;3236;51.022;6.818;2023-02-01T03:13:06;12.20;;;4.75;;
6406;SDS011;3236;51.022;6.818;2023-02-01T03:15:36;21.40;;;6.78;;
6406;SDS011;3236;51.022;6.818;2023-02-01T03:18:12;22.05;;;5.85;;
6406;SDS011;3236;51.022;6.818;2023-02-01T03:20:46;13.40;;;5.40;;
6406;SDS011;3236;51.022;6.818;2023-02-01T03:23:20;30.13;;;6.22;;
6406;SDS011;3236;51.022;6.818;2023-02-01T03:25:50;11.20;;;5.00;;
6406;SDS011;3236;51.022;6.818;2023-02-01T03:28:20;13.40;;;4.50;;
6406;SDS011;3236;51.022;6.818;2023-02-01T03:30:51;18.00;;;5.50;;
6406;SDS011;3236;51.022;6.818;2023-02-01T03:33:22;13.25;;;4.47;;
6406;SDS011;3236;51.022;6.818;2023-02-01T03:35:54;17.08;;;5.22;;
6406;SDS011;3236;51.022;6.818;2023-02-01T03:38:29;15.43;;;4.35;;
6406;SDS011;3236;51.022;6.818;2023-02-01T03:43:33;18.20;;;4.78;;
6406;SDS011;3236;51.022;6.818;2023-02-01T03:46:11;17.20;;;5.38;;
6406;SDS011;3236;51.022;6.818;2023-02-01T03:48:43;22.30;;;3.60;;
6406;SDS011;3236;51.022;6.818;2023-02-01T03:51:12;18.15;;;4.40;;
6406;SDS011;3236;51.022;6.818;2023-02-01T03:53:41;13.65;;;3.45;;
6406;SDS011;3236;51.022;6.818;2023-02-01T03:56:11;19.15;;;3.63;;
6406;SDS011;3236;51.022;6.818;2023-02-01T03:58:39;11.35;;;4.00;;
6406;SDS011;3236;51.022;6.818;2023-02-01T04:01:09;13.45;;;3.53;;
6406;SDS011;3236;51.022;6.818;2023-02-01T04:03:36;10.63;;;3.60;;
6406;SDS011;3236;51.022;6.818;2023-02-01T04:06:03;25.13;;;4.15;;
6406;SDS011;3236;51.022;6.818;2023-02-01T04:08:31;17.85;;;4.88;;
6406;SDS011;3236;51.022;6.818;2023-02-01T04:10:59;18.55;;;4.43;;
6406;SDS011;3236;51.022;6.818;2023-02-01T04:13:26;24.25;;;4.80;;
6406;SDS011;3236;51.022;6.818;2023-02-01T04:15:53;21.38;;;4.82;;
6406;SDS011;3236;51.022;6.818;2023-02-01T04:18:21;22.38;;;4.88;;
6406;SDS011;3236;51.022;6.818;2023-02-01T04:20:48;28.75;;;5.35;;
6406;SDS011;3236;51.022;6.818;2023-02-01T04:23:15;12.95;;;4.05;;
6406;SDS011;3236;51.022;6.818;2023-02-01T04:25:42;13.63;;;4.53;;
6406;SDS011;3236;51.022;6.818;2023-02-01T04:28:11;20.15;;;4.70;;
6406;SDS011;3236;51.022;6.818;2023-02-01T04:30:41;13.18;;;3.60;;
6406;SDS011;3236;51.022;6.818;2023-02-01T04:33:08;25.65;;;4.55;;
6406;SDS011;3236;51.022;6.818;2023-02-01T04:35:39;17.73;;;3.63;;
6406;SDS011;3236;51.022;6.818;2023-02-01T04:38:06;14.60;;;3.50;;
6406;SDS011;3236;51.022;6.818;2023-02-01T04:40:34;5.18;;;1.77;;
6406;SDS011;3236;51.022;6.818;2023-02-01T04:43:02;10.35;;;2.88;;
6406;SDS011;3236;51.022;6.818;2023-02-01T04:45:34;16.02;;;3.72;;
6406;SDS011;3236;51.022;6.818;2023-02-01T04:50:28;7.28;;;1.35;;
6406;SDS011;3236;51.022;6.818;2023-02-01T04:52:55;14.25;;;3.00;;
6406;SDS011;3236;51.022;6.818;2023-02-01T04:55:22;8.60;;;2.28;;
6406;SDS011;3236;51.022;6.818;2023-02-01T04:57:49;10.55;;;2.97;;
6406;SDS011;3236;51.022;6.818;2023-02-01T05:00:17;16.75;;;4.68;;
6406;SDS011;3236;51.022;6.818;2023-02-01T05:02:45;13.85;;;4.00;;
6406;SDS011;3236;51.022;6.818;2023-02-01T05:05:13;14.48;;;3.42;;
6406;SDS011;3236;51.022;6.818;2023-02-01T05:07:40;10.23;;;2.15;;
6406;SDS011;3236;51.022;6.818;2023-02-01T05:10:11;14.88;;;3.25;;
6406;SDS011;3236;51.022;6.818;2023-02-01T05:12:38;21.52;;;3.45;;
6406;SDS011;3236;51.022;6.818;2023-02-01T05:15:23;15.27;;;3.90;;
6406;SDS011;3236;51.022;6.818;2023-02-01T05:17:51;18.30;;;3.38;;
6406;SDS011;3236;51.022;6.818;2023-02-01T05:20:21;15.18;;;3.17;;
6406;SDS011;3236;51.022;6.818;2023-02-01T05:22:49;14.88;;;2.92;;
6406;SDS011;3236;51.022;6.818;2023-02-01T05:25:16;13.68;;;2.95;;
6406;SDS011;3236;51.022;6.818;2023-02-01T05:27:44;16.65;;;2.70;;
6406;SDS011;3236;51.022;6.818;2023-02-01T05:30:12;14.88;;;2.65;;
6406;SDS011;3236;51.022;6.818;2023-02-01T05:32:40;11.50;;;2.42;;
6406;SDS011;3236;51.022;6.818;2023-02-01T05:35:09;13.90;;;2.33;;
6406;SDS011;3236;51.022;6.818;2023-02-01T05:37:36;11.70;;;2.78;;
6406;SDS011;3236;51.022;6.818;2023-02-01T05:40:04;7.38;;;1.20;;
6406;SDS011;3236;51.022;6.818;2023-02-01T05:42:31;11.77;;;2.72;;
6406;SDS011;3236;51.022;6.818;2023-02-01T05:44:58;12.50;;;2.92;;
6406;SDS011;3236;51.022;6.818;2023-02-01T05:47:28;13.55;;;3.28;;
6406;SDS011;3236;51.022;6.818;2023-02-01T05:50:01;14.45;;;2.35;;
6406;SDS011;3236;51.022;6.818;2023-02-01T05:52:31;13.82;;;2.25;;
6406;SDS011;3236;51.022;6.818;2023-02-01T05:54:58;16.58;;;2.75;;
6406;SDS011;3236;51.022;6.818;2023-02-01T05:57:25;18.98;;;3.55;;
6406;SDS011;3236;51.022;6.818;2023-02-01T05:59:52;11.85;;;2.50;;
6406;SDS011;3236;51.022;6.818;2023-02-01T06:02:21;13.40;;;2.97;;
6406;SDS011;3236;51.022;6.818;2023-02-01T06:04:53;13.20;;;3.00;;
6406;SDS011;3236;51.022;6.818;2023-02-01T06:07:20;16.05;;;3.47;;
6406;SDS011;3236;51.022;6.818;2023-02-01T06:09:50;12.52;;;2.50;;
6406;SDS011;3236;51.022;6.818;2023-02-01T06:12:17;16.55;;;3.78;;
6406;SDS011;3236;51.022;6.818;2023-02-01T06:14:44;18.13;;;2.85;;
6406;SDS011;3236;51.022;6.818;2023-02-01T06:17:11;22.23;;;4.57;;
6406;SDS011;3236;51.022;6.818;2023-02-01T06:19:38;10.63;;;1.80;;
6406;SDS011;3236;51.022;6.818;2023-02-01T06:22:06;22.88;;;3.15;;
6406;SDS011;3236;51.022;6.818;2023-02-01T06:24:33;12.63;;;2.65;;
6406;SDS011;3236;51.022;6.818;2023-02-01T06:27:01;21.48;;;3.70;;
6406;SDS011;3236;51.022;6.818;2023-02-01T06:29:29;14.85;;;2.05;;
6406;SDS011;3236;51.022;6.818;2023-02-01T06:31:56;14.30;;;2.50;;
6406;SDS011;3236;51.022;6.818;2023-02-01T06:34:23;7.75;;;2.50;;
6406;SDS011;3236;51.022;6.818;2023-02-01T06:36:50;13.85;;;3.28;;
6406;SDS011;3236;51.022;6.818;2023-02-01T06:39:17;13.88;;;2.78;;
6406;SDS011;3236;51.022;6.818;2023-02-01T06:41:45;9.70;;;2.70;;
6406;SDS011;3236;51.022;6.818;2023-02-01T06:44:14;16.15;;;3.15;;
6406;SDS011;3236;51.022;6.818;2023-02-01T06:46:42;11.02;;;2.53;;
6406;SDS011;3236;51.022;6.818;2023-02-01T06:49:11;10.85;;;2.47;;
6406;SDS011;3236;51.022;6.818;2023-02-01T06:51:38;13.40;;;2.40;;
6406;SDS011;3236;51.022;6.818;2023-02-01T06:54:05;18.92;;;2.38;;
6406;SDS011;3236;51.022;6.818;2023-02-01T06:56:32;11.50;;;2.47;;
6406;SDS011;3236;51.022;6.818;2023-02-01T06:58:59;17.40;;;2.63;;
6406;SDS011;3236;51.022;6.818;2023-02-01T07:01:32;7.88;;;2.08;;
6406;SDS011;3236;51.022;6.818;2023-02-01T07:03:59;10.77;;;2.83;;
6406;SDS011;3236;51.022;6.818;2023-02-01T07:06:26;14.07;;;2.90;;
6406;SDS011;3236;51.022;6.818;2023-02-01T07:08:53;18.60;;;3.53;;
6406;SDS011;3236;51.022;6.818;2023-02-01T07:11:22;9.85;;;2.30;;
6406;SDS011;3236;51.022;6.818;2023-02-01T07:13:49;14.13;;;2.30;;
6406;SDS011;3236;51.022;6.818;2023-02-01T07:16:17;8.85;;;2.33;;
6406;SDS011;3236;51.022;6.818;2023-02-01T07:18:47;10.98;;;3.03;;
6406;SDS011;3236;51.022;6.818;2023-02-01T07:21:16;11.77;;;2.15;;
6406;SDS011;3236;51.022;6.818;2023-02-01T07:23:43;7.65;;;2.00;;
6406;SDS011;3236;51.022;6.818;2023-02-01T07:26:11;4.15;;;1.92;;
6406;SDS011;3236;51.022;6.818;2023-02-01T07:28:47;12.07;;;2.78;;
6406;SDS011;3236;51.022;6.818;2023-02-01T07:31:15;8.52;;;2.58;;
6406;SDS011;3236;51.022;6.818;2023-02-01T07:33:48;11.15;;;3.20;;
6406;SDS011;3236;51.022;6.818;2023-02-01T07:36:20;25.70;;;3.58;;
6406;SDS011;3236;51.022;6.818;2023-02-01T07:38:47;15.27;;;3.05;;
6406;SDS011;3236;51.022;6.818;2023-02-01T07:41:16;10.35;;;2.83;;
6406;SDS011;3236;51.022;6.818;2023-02-01T07:43:46;14.27;;;2.33;;
6406;SDS011;3236;51.022;6.818;2023-02-01T07:46:15;8.32;;;1.92;;
6406;SDS011;3236;51.022;6.818;2023-02-01T07:48:42;15.55;;;2.40;;
6406;SDS011;3236;51.022;6.818;2023-02-01T07:51:11;9.98;;;2.50;;
6406;SDS011;3236;51.022;6.818;2023-02-01T07:53:40;6.15;;;2.13;;
6406;SDS011;3236;51.022;6.818;2023-02-01T07:56:10;13.07;;;2.55;;
6406;SDS011;3236;51.022;6.818;2023-02-01T08:01:11;11.43;;;2.83;;
6406;SDS011;3236;51.022;6.818;2023-02-01T08:03:47;12.43;;;1.93;;
6406;SDS011;3236;51.022;6.818;2023-02-01T08:06:16;13.75;;;2.42;;
6406;SDS011;3236;51.022;6.818;2023-02-01T08:08:44;7.38;;;2.03;;
6406;SDS011;3236;51.022;6.818;2023-02-01T08:11:12;15.75;;;3.15;;
6406;SDS011;3236;51.022;6.818;2023-02-01T08:13:40;26.88;;;3.15;;
6406;SDS011;3236;51.022;6.818;2023-02-01T08:16:08;21.80;;;3.72;;
6406;SDS011;3236;51.022;6.818;2023-02-01T08:18:36;22.27;;;3.22;;
6406;SDS011;3236;51.022;6.818;2023-02-01T08:21:05;13.75;;;2.38;;
6406;SDS011;3236;51.022;6.818;2023-02-01T08:23:42;5.38;;;1.33;;
6406;SDS011;3236;51.022;6.818;2023-02-01T08:26:10;19.27;;;3.08;;
6406;SDS011;3236;51.022;6.818;2023-02-01T08:28:39;16.23;;;2.90;;
6406;SDS011;3236;51.022;6.818;2023-02-01T08:31:14;10.70;;;2.63;;
6406;SDS011;3236;51.022;6.818;2023-02-01T08:33:43;8.93;;;3.20;;
6406;SDS011;3236;51.022;6.818;2023-02-01T08:36:13;7.18;;;1.98;;
6406;SDS011;3236;51.022;6.818;2023-02-01T08:38:42;7.18;;;2.78;;
6406;SDS011;3236;51.022;6.818;2023-02-01T08:41:13;5.60;;;1.52;;
6406;SDS011;3236;51.022;6.818;2023-02-01T08:43:41;10.10;;;2.17;;
6406;SDS011;3236;51.022;6.818;2023-02-01T08:46:09;17.23;;;3.42;;
6406;SDS011;3236;51.022;6.818;2023-02-01T08:48:37;7.03;;;2.65;;
6406;SDS011;3236;51.022;6.818;2023-02-01T08:51:05;34.58;;;2.75;;
6406;SDS011;3236;51.022;6.818;2023-02-01T08:53:34;21.02;;;2.38;;
6406;SDS011;3236;51.022;6.818;2023-02-01T08:56:04;16.20;;;3.45;;
6406;SDS011;3236;51.022;6.818;2023-02-01T08:58:32;16.10;;;3.28;;
6406;SDS011;3236;51.022;6.818;2023-02-01T09:01:02;6.50;;;1.75;;
6406;SDS011;3236;51.022;6.818;2023-02-01T09:03:29;12.18;;;2.90;;
6406;SDS011;3236;51.022;6.818;2023-02-01T09:05:59;13.38;;;3.08;;
6406;SDS011;3236;51.022;6.818;2023-02-01T09:08:26;12.98;;;2.38;;
6406;SDS011;3236;51.022;6.818;2023-02-01T09:10:58;11.23;;;2.45;;
6406;SDS011;3236;51.022;6.818;2023-02-01T09:13:27;10.25;;;1.92;;
6406;SDS011;3236;51.022;6.818;2023-02-01T09:15:54;16.63;;;3.35;;
6406;SDS011;3236;51.022;6.818;2023-02-01T09:18:24;8.30;;;2.08;;
6406;SDS011;3236;51.022;6.818;2023-02-01T09:20:52;16.57;;;2.90;;
6406;SDS011;3236;51.022;6.818;2023-02-01T09:23:19;12.55;;;2.80;;
6406;SDS011;3236;51.022;6.818;2023-02-01T09:25:47;9.07;;;1.98;;
6406;SDS011;3236;51.022;6.818;2023-02-01T09:28:15;13.95;;;2.17;;
6406;SDS011;3236;51.022;6.818;2023-02-01T09:30:43;9.98;;;2.03;;
6406;SDS011;3236;51.022;6.818;2023-02-01T09:33:11;13.73;;;2.33;;
6406;SDS011;3236;51.022;6.818;2023-02-01T09:35:38;14.10;;;3.03;;
6406;SDS011;3236;51.022;6.818;2023-02-01T09:38:05;7.53;;;3.38;;
6406;SDS011;3236;51.022;6.818;2023-02-01T09:40:33;14.18;;;2.45;;
6406;SDS011;3236;51.022;6.818;2023-02-01T09:43:10;16.02;;;2.47;;
6406;SDS011;3236;51.022;6.818;2023-02-01T09:45:49;7.55;;;2.42;;
6406;SDS011;3236;51.022;6.818;2023-02-01T09:48:21;15.27;;;3.33;;
6406;SDS011;3236;51.022;6.818;2023-02-01T09:50:55;10.23;;;2.00;;
6406;SDS011;3236;51.022;6.818;2023-02-01T09:53:25;15.00;;;5.30;;
6406;SDS011;3236;51.022;6.818;2023-02-01T09:55:57;18.98;;;3.30;;
6406;SDS011;3236;51.022;6.818;2023-02-01T09:58:30;11.40;;;2.38;;
6406;SDS011;3236;51.022;6.818;2023-02-01T10:01:03;4.75;;;1.50;;
6406;SDS011;3236;51.022;6.818;2023-02-01T10:03:40;5.35;;;1.58;;
6406;SDS011;3236;51.022;6.818;2023-02-01T10:06:20;18.25;;;3.03;;
6406;SDS011;3236;51.022;6.818;2023-02-01T10:15:06;11.55;;;2.33;;
6406;SDS011;3236;51.022;6.818;2023-02-01T10:17:49;12.93;;;2.35;;
6406;SDS011;3236;51.022;6.818;2023-02-01T10:22:59;7.60;;;2.10;;
6406;SDS011;3236;51.022;6.818;2023-02-01T10:25:40;10.05;;;2.22;;
6406;SDS011;3236;51.022;6.818;2023-02-01T10:28:18;14.30;;;2.97;;
6406;SDS011;3236;51.022;6.818;2023-02-01T10:30:47;8.48;;;2.42;;
6406;SDS011;3236;51.022;6.818;2023-02-01T10:33:18;11.50;;;3.42;;
6406;SDS011;3236;51.022;6.818;2023-02-01T10:35:49;15.15;;;3.78;;
6406;SDS011;3236;51.022;6.818;2023-02-01T10:38:22;18.55;;;3.17;;
6406;SDS011;3236;51.022;6.818;2023-02-01T10:40:53;14.65;;;3.05;;
6406;SDS011;3236;51.022;6.818;2023-02-01T10:43:24;5.72;;;1.90;;
6406;SDS011;3236;51.022;6.818;2023-02-01T10:45:52;15.18;;;3.63;;
6406;SDS011;3236;51.022;6.818;2023-02-01T10:48:21;9.55;;;3.20;;
6406;SDS011;3236;51.022;6.818;2023-02-01T10:50:49;23.13;;;3.45;;
6406;SDS011;3236;51.022;6.818;2023-02-01T10:53:21;10.65;;;2.17;;
6406;SDS011;3236;51.022;6.818;2023-02-01T10:55:52;23.20;;;3.25;;
6406;SDS011;3236;51.022;6.818;2023-02-01T10:58:25;5.57;;;1.58;;
6406;SDS011;3236;51.022;6.818;2023-02-01T11:00:56;13.82;;;3.22;;
6406;SDS011;3236;51.022;6.818;2023-02-01T11:03:34;14.68;;;2.63;;
6406;SDS011;3236;51.022;6.818;2023-02-01T11:06:10;21.83;;;3.50;;
6406;SDS011;3236;51.022;6.818;2023-02-01T11:08:48;16.73;;;3.53;;
6406;SDS011;3236;51.022;6.818;2023-02-01T11:11:25;13.15;;;2.25;;
6406;SDS011;3236;51.022;6.818;2023-02-01T11:13:54;19.58;;;3.22;;
6406;SDS011;3236;51.022;6.818;2023-02-01T11:16:28;14.27;;;3.17;;
6406;SDS011;3236;51.022;6.818;2023-02-01T11:19:00;5.18;;;3.25;;
6406;SDS011;3236;51.022;6.818;2023-02-01T11:21:32;13.43;;;3.15;;
6406;SDS011;3236;51.022;6.818;2023-02-01T11:24:00;19.02;;;3.00;;
6406;SDS011;3236;51.022;6.818;2023-02-01T11:26:29;12.95;;;3.17;;
6406;SDS011;3236;51.022;6.818;2023-02-01T11:29:01;13.88;;;3.58;;
6406;SDS011;3236;51.022;6.818;2023-02-01T11:31:32;16.05;;;3.35;;
6406;SDS011;3236;51.022;6.818;2023-02-01T11:34:06;16.02;;;2.85;;
6406;SDS011;3236;51.022;6.818;2023-02-01T11:36:35;13.50;;;2.88;;
6406;SDS011;3236;51.022;6.818;2023-02-01T11:39:14;17.50;;;2.97;;
6406;SDS011;3236;51.022;6.818;2023-02-01T11:41:55;7.80;;;1.98;;
6406;SDS011;3236;51.022;6.818;2023-02-01T11:44:28;15.20;;;1.95;;
6406;SDS011;3236;51.022;6.818;2023-02-01T11:46:57;6.72;;;2.53;;
6406;SDS011;3236;51.022;6.818;2023-02-01T11:49:56;8.85;;;2.65;;
6406;SDS011;3236;51.022;6.818;2023-02-01T11:55:36;4.60;;;1.55;;
6406;SDS011;3236;51.022;6.818;2023-02-01T11:58:20;17.88;;;2.28;;
6406;SDS011;3236;51.022;6.818;2023-02-01T12:01:11;17.55;;;2.47;;
6406;SDS011;3236;51.022;6.818;2023-02-01T12:06:46;17.98;;;3.00;;
6406;SDS011;3236;51.022;6.818;2023-02-01T12:09:31;8.90;;;2.40;;
6406;SDS011;3236;51.022;6.818;2023-02-01T12:12:13;10.15;;;2.90;;
6406;SDS011;3236;51.022;6.818;2023-02-01T12:14:49;18.70;;;3.80;;
6406;SDS011;3236;51.022;6.818;2023-02-01T12:17:41;8.25;;;2.70;;
6406;SDS011;3236;51.022;6.818;2023-02-01T12:20:22;11.60;;;2.15;;
6406;SDS011;3236;51.022;6.818;2023-02-01T12:23:03;12.53;;;2.60;;
6406;SDS011;3236;51.022;6.818;2023-02-01T12:25:54;14.00;;;2.47;;
6406;SDS011;3236;51.022;6.818;2023-02-01T12:28:44;24.83;;;3.13;;
6406;SDS011;3236;51.022;6.818;2023-02-01T12:31:47;4.90;;;1.63;;
6406;SDS011;3236;51.022;6.818;2023-02-01T12:34:27;13.48;;;2.80;;
6406;SDS011;3236;51.022;6.818;2023-02-01T12:37:31;8.48;;;2.20;;
6406;SDS011;3236;51.022;6.818;2023-02-01T12:40:14;6.65;;;1.70;;
6406;SDS011;3236;51.022;6.818;2023-02-01T12:42:52;7.15;;;1.65;;
6406;SDS011;3236;51.022;6.818;2023-02-01T12:45:30;11.77;;;1.83;;
6406;SDS011;3236;51.022;6.818;2023-02-01T12:48:03;15.13;;;2.72;;
6406;SDS011;3236;51.022;6.818;2023-02-01T12:50:49;9.10;;;2.53;;
6406;SDS011;3236;51.022;6.818;2023-02-01T12:53:22;8.98;;;3.00;;
6406;SDS011;3236;51.022;6.818;2023-02-01T12:55:54;10.20;;;2.35;;
6406;SDS011;3236;51.022;6.818;2023-02-01T12:58:24;13.35;;;3.35;;
6406;SDS011;3236;51.022;6.818;2023-02-01T13:00:58;7.90;;;1.40;;
6406;SDS011;3236;51.022;6.818;2023-02-01T13:03:29;10.05;;;2.25;;
6406;SDS011;3236;51.022;6.818;2023-02-01T13:06:06;14.45;;;3.17;;
6406;SDS011;3236;51.022;6.818;2023-02-01T13:08:39;3.40;;;1.52;;
6406;SDS011;3236;51.022;6.818;2023-02-01T13:11:15;10.20;;;2.20;;
6406;SDS011;3236;51.022;6.818;2023-02-01T13:13:53;22.88;;;2.55;;
6406;SDS011;3236;51.022;6.818;2023-02-01T13:16:27;13.23;;;3.33;;
6406;SDS011;3236;51.022;6.818;2023-02-01T13:18:59;12.85;;;3.10;;
6406;SDS011;3236;51.022;6.818;2023-02-01T13:21:33;13.05;;;2.15;;
6406;SDS011;3236;51.022;6.818;2023-02-01T13:24:03;8.48;;;2.20;;
6406;SDS011;3236;51.022;6.818;2023-02-01T13:26:32;14.63;;;2.20;;
6406;SDS011;3236;51.022;6.818;2023-02-01T13:29:00;6.32;;;2.17;;
6406;SDS011;3236;51.022;6.818;2023-02-01T13:31:46;5.50;;;1.67;;
6406;SDS011;3236;51.022;6.818;2023-02-01T13:34:40;7.68;;;2.33;;
6406;SDS011;3236;51.022;6.818;2023-02-01T13:43:05;7.10;;;2.50;;
6406;SDS011;3236;51.022;6.818;2023-02-01T13:45:42;7.93;;;1.92;;
6406;SDS011;3236;51.022;6.818;2023-02-01T13:48:18;11.38;;;2.15;;
6406;SDS011;3236;51.022;6.818;2023-02-01T13:50:53;12.38;;;3.10;;
6406;SDS011;3236;51.022;6.818;2023-02-01T13:53:23;10.38;;;1.73;;
6406;SDS011;3236;51.022;6.818;2023-02-01T13:55:55;18.00;;;2.33;;
6406;SDS011;3236;51.022;6.818;2023-02-01T13:58:33;11.15;;;2.15;;
6406;SDS011;3236;51.022;6.818;2023-02-01T14:07:19;7.38;;;1.60;;
6406;SDS011;3236;51.022;6.818;2023-02-01T14:09:49;7.18;;;2.70;;
6406;SDS011;3236;51.022;6.818;2023-02-01T14:15:25;9.55;;;2.25;;
6406;SDS011;3236;51.022;6.818;2023-02-01T14:17:54;5.63;;;1.67;;
6406;SDS011;3236;51.022;6.818;2023-02-01T14:23:17;11.13;;;1.60;;
6406;SDS011;3236;51.022;6.818;2023-02-01T14:26:04;12.25;;;2.25;;
6406;SDS011;3236;51.022;6.818;2023-02-01T14:28:39;10.68;;;1.85;;
6406;SDS011;3236;51.022;6.818;2023-02-01T14:34:29;7.65;;;1.48;;
6406;SDS011;3236;51.022;6.818;2023-02-01T14:37:02;9.57;;;1.90;;
6406;SDS011;3236;51.022;6.818;2023-02-01T14:39:39;13.05;;;2.00;;
6406;SDS011;3236;51.022;6.818;2023-02-01T14:42:20;19.05;;;2.70;;
6406;SDS011;3236;51.022;6.818;2023-02-01T14:44:52;17.13;;;2.25;;
6406;SDS011;3236;51.022;6.818;2023-02-01T14:47:28;9.20;;;2.30;;
6406;SDS011;3236;51.022;6.818;2023-02-01T14:53:05;15.77;;;2.60;;
6406;SDS011;3236;51.022;6.818;2023-02-01T14:55:42;11.27;;;2.67;;
6406;SDS011;3236;51.022;6.818;2023-02-01T14:58:16;9.80;;;1.88;;
6406;SDS011;3236;51.022;6.818;2023-02-01T15:00:56;9.38;;;1.95;;
6406;SDS011;3236;51.022;6.818;2023-02-01T15:03:30;15.85;;;2.88;;
6406;SDS011;3236;51.022;6.818;2023-02-01T15:06:25;10.27;;;2.58;;
6406;SDS011;3236;51.022;6.818;2023-02-01T15:09:07;9.65;;;2.55;;
6406;SDS011;3236;51.022;6.818;2023-02-01T15:11:58;15.93;;;2.88;;
6406;SDS011;3236;51.022;6.818;2023-02-01T15:14:31;12.60;;;2.47;;
6406;SDS011;3236;51.022;6.818;2023-02-01T15:17:16;12.68;;;2.70;;
6406;SDS011;3236;51.022;6.818;2023-02-01T15:19:52;11.57;;;3.20;;
6406;SDS011;3236;51.022;6.818;2023-02-01T15:22:24;13.50;;;2.30;;
6406;SDS011;3236;51.022;6.818;2023-02-01T15:24:52;17.52;;;2.25;;
6406;SDS011;3236;51.022;6.818;2023-02-01T15:27:24;21.60;;;3.38;;
6406;SDS011;3236;51.022;6.818;2023-02-01T15:29:53;7.53;;;1.92;;
6406;SDS011;3236;51.022;6.818;2023-02-01T15:32:32;10.13;;;1.70;;
6406;SDS011;3236;51.022;6.818;2023-02-01T15:35:00;8.93;;;2.78;;
6406;SDS011;3236;51.022;6.818;2023-02-01T15:37:37;10.40;;;2.13;;
6406;SDS011;3236;51.022;6.818;2023-02-01T15:40:24;3.75;;;1.35;;
6406;SDS011;3236;51.022;6.818;2023-02-01T15:43:11;9.10;;;2.28;;
6406;SDS011;3236;51.022;6.818;2023-02-01T15:45:57;11.07;;;2.03;;
6406;SDS011;3236;51.022;6.818;2023-02-01T15:48:38;16.40;;;2.78;;
6406;SDS011;3236;51.022;6.818;2023-02-01T15:51:17;9.50;;;2.13;;
6406;SDS011;3236;51.022;6.818;2023-02-01T15:54:01;12.48;;;2.13;;
6406;SDS011;3236;51.022;6.818;2023-02-01T15:56:40;6.57;;;1.95;;
6406;SDS011;3236;51.022;6.818;2023-02-01T15:59:21;4.78;;;1.92;;
6406;SDS011;3236;51.022;6.818;2023-02-01T16:01:52;23.33;;;3.15;;
6406;SDS011;3236;51.022;6.818;2023-02-01T16:04:22;14.75;;;2.97;;
6406;SDS011;3236;51.022;6.818;2023-02-01T16:07:00;8.73;;;1.95;;
6406;SDS011;3236;51.022;6.818;2023-02-01T16:09:39;12.07;;;2.47;;
6406;SDS011;3236;51.022;6.818;2023-02-01T16:12:28;9.75;;;2.05;;
6406;SDS011;3236;51.022;6.818;2023-02-01T16:15:01;17.55;;;2.72;;
6406;SDS011;3236;51.022;6.818;2023-02-01T16:17:29;7.13;;;2.38;;
6406;SDS011;3236;51.022;6.818;2023-02-01T16:19:57;14.48;;;2.35;;
6406;SDS011;3236;51.022;6.818;2023-02-01T16:22:27;19.42;;;2.30;;
6406;SDS011;3236;51.022;6.818;2023-02-01T16:24:56;11.23;;;1.90;;
6406;SDS011;3236;51.022;6.818;2023-02-01T16:27:24;13.95;;;2.58;;
6406;SDS011;3236;51.022;6.818;2023-02-01T16:29:53;12.27;;;2.70;;
6406;SDS011;3236;51.022;6.818;2023-02-01T16:32:22;14.93;;;2.80;;
6406;SDS011;3236;51.022;6.818;2023-02-01T16:34:49;13.73;;;2.97;;